Time;durP1;ratioP1;P1;durP2;ratioP2;P2;SDS_P1;SDS_P2;PMS_P1;PMS_P2;Temp;Humidity;BMP_temperature;BMP_pressure;BME280_temperature;BME280_humidity;BME280_pressure;Samples;Min_cycle;Max_cycle;Signal;HPM_P1;HPM_P2
2021/12/12 00:00:47;;;;;;;;;;;;;;;2.49;100.00;101656.78;5111852;28;20527;-74
2021/12/12 00:03:20;;;;;;;;;;;;;;;2.58;100.00;101673.03;5093443;28;20246;-74
2021/12/12 00:05:48;;;;;;;;;;;;;;;2.59;100.00;101677.34;5110509;28;19912;-75
2021/12/12 00:08:14;;;;;;;;;;;;;;;2.63;100.00;101685.00;5110787;28;20260;-75
2021/12/12 00:10:41;;;;;;;;;;;;;;;2.53;100.00;101687.31;5093614;28;19908;-74
2021/12/12 00:13:11;;;;;;;;;;;;;;;2.54;100.00;101689.00;5093682;28;20428;-75
2021/12/12 00:15:36;;;;;;;;;;;;;;;2.59;100.00;101701.06;5110185;28;19922;-75
2021/12/12 00:18:02;;;;;;;;;;;;;;;2.66;100.00;101697.16;5110722;28;19912;-75
2021/12/12 00:20:29;;;;;;;;;;;;;;;2.61;100.00;101680.75;5111422;28;20337;-75
2021/12/12 00:22:58;;;;;;;;;;;;;;;2.55;100.00;101679.28;5111439;28;19915;-75
2021/12/12 00:25:25;;;;;;;;;;;;;;;2.37;100.00;101646.94;5093111;28;20317;-74
2021/12/12 00:27:50;;;;;;;;;;;;;;;2.32;100.00;101635.81;5110428;28;19980;-75
2021/12/12 00:30:16;;;;;;;;;;;;;;;2.26;100.00;101634.38;5111139;28;19954;-74
2021/12/12 00:32:41;;;;;;;;;;;;;;;2.29;100.00;101639.47;5110400;28;19926;-75
2021/12/12 00:35:09;;;;;;;;;;;;;;;2.16;100.00;101613.91;5093069;28;20348;-75
2021/12/12 00:37:35;;;;;;;;;;;;;;;2.23;100.00;101641.59;5093356;28;19915;-75
2021/12/12 00:40:04;;;;;;;;;;;;;;;2.23;100.00;101636.34;5111099;28;20711;-74
2021/12/12 00:42:35;;;;;;;;;;;;;;;2.19;100.00;101637.44;5111051;28;19976;-75
2021/12/12 00:45:02;;;;;;;;;;;;;;;2.19;100.00;101642.72;5109821;28;19922;-74
2021/12/12 00:47:28;;;;;;;;;;;;;;;2.23;100.00;101647.72;5110191;28;19911;-75
2021/12/12 00:49:53;;;;;;;;;;;;;;;2.28;100.00;101652.72;5110223;28;20408;-74
2021/12/12 00:52:19;;;;;;;;;;;;;;;2.23;100.00;101641.59;5110197;28;19962;-75
2021/12/12 00:54:46;;;;;;;;;;;;;;;2.20;100.00;101641.75;5109689;28;20332;-75
2021/12/12 00:57:13;;;;;;;;;;;;;;;2.00;100.00;101621.81;5109748;28;20308;-75
2021/12/12 00:59:39;;;;;;;;;;;;;;;2.00;100.00;101630.56;5109863;28;19957;-75
2021/12/12 01:02:07;;;;;;;;;;;;;;;1.95;100.00;101627.34;5092846;28;20340;-75
2021/12/12 01:04:37;;;;;;;;;;;;;;;2.02;100.00;101652.41;5109433;28;19958;-74
2021/12/12 01:07:05;;;;;;;;;;;;;;;2.03;100.00;101663.78;5109813;28;19922;-75
2021/12/12 01:09:33;;;;;;;;;;;;;;;2.05;100.00;101654.84;5109751;28;19912;-75
2021/12/12 01:12:00;;;;;;;;;;;;;;;2.03;100.00;101646.19;5092602;28;20029;-75
2021/12/12 01:14:27;;;;;;;;;;;;;;;2.17;100.00;101669.13;5109258;28;19961;-75
2021/12/12 01:16:59;;;;;;;;;;;;;;;1.87;100.00;101604.06;5110532;28;19912;-75
2021/12/12 01:19:27;;;;;;;;;;;;;;;1.87;100.00;101614.59;5109743;28;19912;-75
2021/12/12 01:21:56;;;;;;;;;;;;;;;1.87;100.00;101608.47;5110536;28;19922;-75
2021/12/12 01:24:31;;;;;;;;;;;;;;;1.78;100.00;101598.44;5109261;28;20038;-75
2021/12/12 01:26:58;;;;;;;;;;;;;;;1.68;100.00;101596.31;5109405;28;19923;-74
2021/12/12 01:29:23;;;;;;;;;;;;;;;1.73;100.00;101621.56;5109281;28;19974;-75
2021/12/12 01:31:49;;;;;;;;;;;;;;;1.79;100.00;101629.97;5092489;28;19931;-75
2021/12/12 01:34:18;;;;;;;;;;;;;;;1.76;100.00;101632.78;5109229;28;20305;-75
2021/12/12 01:37:04;;;;;;;;;;;;;;;1.72;100.00;101641.78;5109266;28;20249;-75
2021/12/12 01:39:41;;;;;;;;;;;;;;;1.80;100.00;101655.38;5109483;28;19992;-75
2021/12/12 01:42:19;;;;;;;;;;;;;;;1.75;100.00;101644.22;5108606;28;19915;-75
2021/12/12 01:44:46;;;;;;;;;;;;;;;1.81;100.00;101650.97;5108990;28;19927;-75
2021/12/12 01:47:14;;;;;;;;;;;;;;;1.73;100.00;101642.63;5109331;28;19951;-74
2021/12/12 01:49:43;;;;;;;;;;;;;;;1.67;100.00;101639.38;5109337;28;20256;-74
2021/12/12 01:52:10;;;;;;;;;;;;;;;1.58;100.00;101639.88;5109284;28;20008;-75
2021/12/12 01:54:43;;;;;;;;;;;;;;;1.67;100.00;101670.97;5108973;28;20006;-74
2021/12/12 01:57:10;;;;;;;;;;;;;;;1.71;100.00;101681.34;5110158;28;19915;-74
2021/12/12 01:59:36;;;;;;;;;;;;;;;1.65;100.00;101688.63;5110048;28;19922;-75
2021/12/12 02:02:07;;;;;;;;;;;;;;;1.61;100.00;101680.97;5092205;28;19927;-75
2021/12/12 02:04:39;;;;;;;;;;;;;;;1.70;100.00;101698.91;5108892;28;19916;-75
2021/12/12 02:07:05;;;;;;;;;;;;;;;1.69;100.00;101708.59;5109130;28;20010;-75
2021/12/12 02:09:31;;;;;;;;;;;;;;;1.63;100.00;101695.75;5111249;28;19951;-75
2021/12/12 02:11:59;;;;;;;;;;;;;;;1.51;100.00;101685.88;5114159;28;20341;-75
2021/12/12 02:14:26;;;;;;;;;;;;;;;1.62;100.00;101709.88;5112680;28;20229;-75
2021/12/12 02:16:54;;;;;;;;;;;;;;;1.59;100.00;101699.50;5096122;28;20355;-75
2021/12/12 02:19:28;;;;;;;;;;;;;;;1.45;100.00;101679.19;5113884;28;19912;-75
2021/12/12 02:22:05;;;;;;;;;;;;;;;1.47;100.00;101700.13;5113017;28;19998;-75
2021/12/12 02:35:07;;;;;;;;;;;;;;;1.46;100.00;101706.34;5112605;28;20333;-75
2021/12/12 02:35:44;;;;;;;;;;;;;;;1.48;100.00;101734.28;5113260;28;19911;-75
2021/12/12 02:38:11;;;;;;;;;;;;;;;1.42;100.00;101721.41;5112814;28;20261;-75
2021/12/12 02:40:40;;;;;;;;;;;;;;;1.38;100.00;101733.06;5112599;28;19911;-75
2021/12/12 02:43:07;;;;;;;;;;;;;;;1.33;100.00;101716.63;5113537;28;19920;-75
2021/12/12 02:45:35;;;;;;;;;;;;;;;1.33;100.00;101729.78;5113122;28;19915;-74
2021/12/12 02:48:04;;;;;;;;;;;;;;;1.25;100.00;101732.81;5112304;28;19914;-75
2021/12/12 02:50:33;;;;;;;;;;;;;;;1.30;100.00;101740.47;5095437;28;20324;-75
2021/12/12 02:53:02;;;;;;;;;;;;;;;1.32;100.00;101754.41;5112260;28;19946;-76
2021/12/12 02:55:30;;;;;;;;;;;;;;;1.38;100.00;101761.13;5112996;28;20260;-75
2021/12/12 02:57:56;;;;;;;;;;;;;;;1.40;100.00;101769.81;5111390;28;19924;-75
2021/12/12 03:00:23;;;;;;;;;;;;;;;1.46;100.00;101766.88;5112221;28;19912;-76
2021/12/12 03:02:56;;;;;;;;;;;;;;;1.39;100.00;101762.84;5112101;28;19955;-75
2021/12/12 03:05:21;;;;;;;;;;;;;;;1.29;100.00;101758.97;5095069;28;19919;-76
2021/12/12 03:07:47;;;;;;;;;;;;;;;1.33;100.00;101792.09;5095291;28;19994;-76
2021/12/12 03:10:15;;;;;;;;;;;;;;;1.24;100.00;101786.38;5112196;28;19928;-75
2021/12/12 03:12:40;;;;;;;;;;;;;;;1.25;100.00;101795.13;5113125;28;20340;-75
2021/12/12 03:15:12;;;;;;;;;;;;;;;1.30;100.00;101808.03;5094680;28;19916;-75
2021/12/12 03:17:39;;;;;;;;;;;;;;;1.24;100.00;101814.44;5112011;28;20238;-75
2021/12/12 03:20:23;;;;;;;;;;;;;;;1.31;100.00;101830.78;5111710;28;19916;-75
2021/12/12 03:22:57;;;;;;;;;;;;;;;1.34;100.00;101849.06;5111274;28;20268;-76
2021/12/12 03:25:23;;;;;;;;;;;;;;;1.44;100.00;101871.34;5112573;28;19969;-75
2021/12/12 03:27:49;;;;;;;;;;;;;;;1.46;100.00;101872.97;5094825;28;19918;-76
2021/12/12 03:30:14;;;;;;;;;;;;;;;1.41;100.00;101864.47;5111956;28;20259;-76
2021/12/12 03:32:39;;;;;;;;;;;;;;;1.48;100.00;101878.19;5112797;28;19923;-75
2021/12/12 03:35:06;;;;;;;;;;;;;;;1.45;100.00;101876.56;5111403;28;19911;-75
2021/12/12 03:37:32;;;;;;;;;;;;;;;1.42;100.00;101881.09;5111738;28;19915;-76
2021/12/12 03:39:59;;;;;;;;;;;;;;;1.40;100.00;101869.81;5094483;28;19911;-75
2021/12/12 03:42:28;;;;;;;;;;;;;;;1.37;100.00;101875.22;5111357;28;19912;-75
2021/12/12 03:44:54;;;;;;;;;;;;;;;1.34;100.00;101883.28;5110611;28;20371;-76
2021/12/12 03:47:22;;;;;;;;;;;;;;;1.33;100.00;101897.34;5095313;28;19911;-75
2021/12/12 03:49:47;;;;;;;;;;;;;;;1.33;100.00;101907.88;5111079;28;19923;-75
2021/12/12 03:52:15;;;;;;;;;;;;;;;1.39;100.00;101912.84;5112189;28;19915;-75
2021/12/12 03:54:40;;;;;;;;;;;;;;;1.47;100.00;101932.59;5094755;28;19911;-75
2021/12/12 03:57:07;;;;;;;;;;;;;;;1.53;100.00;101930.59;5114013;28;19923;-76
2021/12/12 03:59:33;;;;;;;;;;;;;;;1.45;100.00;101930.94;5112280;28;19919;-76
2021/12/12 04:01:58;;;;;;;;;;;;;;;1.55;100.00;101939.28;5112251;28;19919;-75
2021/12/12 04:04:26;;;;;;;;;;;;;;;1.49;100.00;101927.25;5110782;28;20310;-76
2021/12/12 04:06:51;;;;;;;;;;;;;;;1.53;100.00;101941.97;5094016;28;19912;-76
2021/12/12 04:09:17;;;;;;;;;;;;;;;1.50;100.00;101936.88;5112047;28;19912;-76
2021/12/12 04:11:47;;;;;;;;;;;;;;;1.54;100.00;101943.66;5110970;28;19916;-76
2021/12/12 04:14:14;;;;;;;;;;;;;;;1.50;100.00;101938.63;5110634;28;19916;-76
2021/12/12 04:16:41;;;;;;;;;;;;;;;1.51;100.00;101941.19;5110809;28;20010;-76
2021/12/12 04:19:07;;;;;;;;;;;;;;;1.52;100.00;101948.16;5110821;28;19915;-75
2021/12/12 04:21:33;;;;;;;;;;;;;;;1.56;100.00;101949.72;5093575;28;19912;-75
2021/12/12 04:23:59;;;;;;;;;;;;;;;1.63;100.00;101956.38;5110237;28;19926;-76
2021/12/12 04:26:30;;;;;;;;;;;;;;;1.60;100.00;101943.38;5111515;28;19977;-76
2021/12/12 04:28:55;;;;;;;;;;;;;;;1.61;100.00;101944.22;5110584;28;19984;-76
2021/12/12 04:31:21;;;;;;;;;;;;;;;1.54;100.00;101912.06;5093717;28;20341;-76
2021/12/12 04:33:46;;;;;;;;;;;;;;;1.56;100.00;101912.84;5093062;28;19916;-76
2021/12/12 04:36:11;;;;;;;;;;;;;;;1.54;100.00;101904.19;5110702;28;19919;-76
2021/12/12 04:38:37;;;;;;;;;;;;;;;1.65;100.00;101922.09;5111456;28;19916;-76
2021/12/12 04:41:02;;;;;;;;;;;;;;;1.64;100.00;101904.59;5111477;28;19916;-76
2021/12/12 04:43:27;;;;;;;;;;;;;;;1.65;100.00;101890.50;5110253;28;19912;-76
2021/12/12 04:46:03;;;;;;;;;;;;;;;1.68;100.00;101885.91;5093284;28;19916;-76
2021/12/12 04:51:22;;;;;;;;;;;;;;;1.71;100.00;101863.00;5110254;28;19930;-76
2021/12/12 04:53:50;;;;;;;;;;;;;;;1.72;100.00;101847.13;5092958;28;19912;-76
2021/12/12 04:56:19;;;;;;;;;;;;;;;1.74;100.00;101840.00;5110273;28;19926;-76
2021/12/12 04:58:49;;;;;;;;;;;;;;;1.73;100.00;101819.00;5111017;28;19930;-76
2021/12/12 05:01:18;;;;;;;;;;;;;;;1.76;100.00;101821.50;5092693;28;19915;-75
2021/12/12 05:03:50;;;;;;;;;;;;;;;1.75;100.00;101799.56;5109571;28;20036;-76
2021/12/12 05:06:23;;;;;;;;;;;;;;;1.87;100.00;101821.78;5110709;28;20381;-76
2021/12/12 05:08:51;;;;;;;;;;;;;;;1.81;100.00;101798.41;5109521;28;19950;-76
2021/12/12 05:11:19;;;;;;;;;;;;;;;1.78;100.00;101777.50;5109263;28;20399;-76
2021/12/12 05:13:50;;;;;;;;;;;;;;;1.80;100.00;101773.00;5109826;28;20356;-76
2021/12/12 05:16:18;;;;;;;;;;;;;;;1.90;100.00;101784.78;5110647;28;19964;-76
2021/12/12 05:18:49;;;;;;;;;;;;;;;1.91;100.00;101778.56;5109947;28;19964;-77
2021/12/12 05:21:31;;;;;;;;;;;;;;;1.86;100.00;101759.53;5093045;28;19922;-77
2021/12/12 05:24:00;;;;;;;;;;;;;;;1.81;100.00;101753.66;5092562;28;19919;-77
2021/12/12 05:26:28;;;;;;;;;;;;;;;1.83;100.00;101744.75;5111077;28;19911;-77
2021/12/12 05:29:03;;;;;;;;;;;;;;;1.83;100.00;101742.09;5110038;28;19953;-77
2021/12/12 05:31:29;;;;;;;;;;;;;;;1.89;100.00;101743.53;5110579;28;20053;-79
2021/12/12 05:33:54;;;;;;;;;;;;;;;1.98;100.00;101750.97;5110582;28;20018;-78
2021/12/12 05:36:20;;;;;;;;;;;;;;;1.85;100.00;101734.09;5109866;28;19912;-78
2021/12/12 05:38:46;;;;;;;;;;;;;;;1.92;100.00;101747.78;5110308;28;19916;-78
2021/12/12 05:41:11;;;;;;;;;;;;;;;1.89;100.00;101733.00;5110808;28;19915;-79
2021/12/12 05:43:37;;;;;;;;;;;;;;;1.92;100.00;101748.66;5111492;28;19926;-78
2021/12/12 05:46:03;;;;;;;;;;;;;;;2.03;100.00;101758.63;5114515;28;19971;-77
2021/12/12 05:48:29;;;;;;;;;;;;;;;2.00;100.00;101743.81;5114272;28;20361;-78
2021/12/12 05:50:55;;;;;;;;;;;;;;;1.97;100.00;101732.63;5113946;28;19912;-77
2021/12/12 05:53:21;;;;;;;;;;;;;;;1.95;100.00;101732.69;5114690;28;19919;-76
2021/12/12 05:55:47;;;;;;;;;;;;;;;1.86;100.00;101706.84;5113579;28;19969;-76
2021/12/12 05:58:14;;;;;;;;;;;;;;;1.75;100.00;101703.94;5113789;28;19998;-76
2021/12/12 06:00:43;;;;;;;;;;;;;;;1.78;100.00;101727.47;5113402;28;19941;-77
2021/12/12 06:03:09;;;;;;;;;;;;;;;1.70;100.00;101727.88;5113422;28;19927;-75
2021/12/12 06:05:35;;;;;;;;;;;;;;;1.80;100.00;101765.09;5113008;28;19937;-76
2021/12/12 06:08:01;;;;;;;;;;;;;;;1.69;100.00;101757.78;5113503;28;19976;-76
2021/12/12 06:10:27;;;;;;;;;;;;;;;1.75;100.00;101782.94;5114358;28;19915;-76
2021/12/12 06:12:53;;;;;;;;;;;;;;;1.73;100.00;101796.16;5113441;28;20008;-76
2021/12/12 06:15:20;;;;;;;;;;;;;;;1.76;100.00;101806.56;5113182;28;19907;-76
2021/12/12 06:17:47;;;;;;;;;;;;;;;1.75;100.00;101809.25;5113222;28;19916;-76
2021/12/12 06:20:13;;;;;;;;;;;;;;;1.73;100.00;101822.50;5114031;28;19911;-76
2021/12/12 06:22:38;;;;;;;;;;;;;;;1.72;100.00;101822.59;5113206;28;20002;-75
2021/12/12 06:25:04;;;;;;;;;;;;;;;1.68;100.00;101822.72;5112910;28;19912;-76
2021/12/12 06:27:30;;;;;;;;;;;;;;;1.71;100.00;101840.19;5113986;28;19912;-76
2021/12/12 06:29:55;;;;;;;;;;;;;;;1.67;100.00;101834.19;5096036;28;19949;-76
2021/12/12 06:32:21;;;;;;;;;;;;;;;1.72;100.00;101856.81;5113166;28;20344;-76
2021/12/12 06:34:47;;;;;;;;;;;;;;;1.69;100.00;101855.19;5095764;28;20372;-76
2021/12/12 06:37:13;;;;;;;;;;;;;;;1.60;100.00;101853.88;5113037;28;20019;-76
2021/12/12 06:39:39;;;;;;;;;;;;;;;1.67;100.00;101876.31;5113802;28;19922;-77
2021/12/12 06:42:06;;;;;;;;;;;;;;;1.69;100.00;101887.63;5113050;28;19908;-76
2021/12/12 06:44:32;;;;;;;;;;;;;;;1.66;100.00;101886.91;5113409;28;19920;-76
2021/12/12 06:46:59;;;;;;;;;;;;;;;1.69;100.00;101903.44;5113674;28;19911;-76
2021/12/12 06:49:25;;;;;;;;;;;;;;;1.66;100.00;101900.09;5095719;28;19908;-76
2021/12/12 06:51:52;;;;;;;;;;;;;;;1.69;100.00;101921.00;5112523;28;20707;-76
2021/12/12 06:54:20;;;;;;;;;;;;;;;1.65;100.00;101920.31;5112036;28;20452;-76
2021/12/12 06:56:47;;;;;;;;;;;;;;;1.69;100.00;101935.03;5112203;28;19919;-75
2021/12/12 06:59:13;;;;;;;;;;;;;;;1.76;100.00;101953.16;5113444;28;19961;-76
2021/12/12 07:01:38;;;;;;;;;;;;;;;1.76;100.00;101946.09;5113538;28;19951;-76
2021/12/12 07:04:07;;;;;;;;;;;;;;;1.70;100.00;101946.41;5112009;28;19923;-76
2021/12/12 07:06:33;;;;;;;;;;;;;;;1.78;100.00;101967.06;5112351;28;19941;-75
2021/12/12 07:09:00;;;;;;;;;;;;;;;1.90;100.00;101980.50;5113076;28;20370;-76
2021/12/12 07:11:27;;;;;;;;;;;;;;;1.77;100.00;101949.59;5113133;28;19918;-75
2021/12/12 07:13:53;;;;;;;;;;;;;;;1.78;100.00;101956.53;5112060;28;19907;-75
2021/12/12 07:16:20;;;;;;;;;;;;;;;1.77;100.00;101965.38;5113023;28;19941;-75
2021/12/12 07:18:46;;;;;;;;;;;;;;;1.78;100.00;101973.22;5112938;27;19955;-74
2021/12/12 07:21:12;;;;;;;;;;;;;;;1.82;100.00;101981.81;5112879;28;20356;-74
2021/12/12 07:23:38;;;;;;;;;;;;;;;1.89;100.00;101984.06;5111510;28;19937;-75
2021/12/12 07:26:06;;;;;;;;;;;;;;;1.90;100.00;101990.19;5094834;28;20014;-75
2021/12/12 07:28:32;;;;;;;;;;;;;;;1.96;100.00;102007.47;5094794;28;19955;-75
2021/12/12 07:30:59;;;;;;;;;;;;;;;1.95;100.00;102008.41;5111594;28;19969;-74
2021/12/12 07:33:27;;;;;;;;;;;;;;;1.96;100.00;102010.94;5112551;28;19920;-75
2021/12/12 07:35:56;;;;;;;;;;;;;;;1.93;100.00;102005.00;5112506;28;19922;-75
2021/12/12 07:38:21;;;;;;;;;;;;;;;2.00;100.00;102015.13;5112857;28;19911;-76
2021/12/12 07:40:47;;;;;;;;;;;;;;;2.01;100.00;102026.53;5111686;28;20246;-76
2021/12/12 07:43:12;;;;;;;;;;;;;;;2.10;100.00;102042.72;5112602;28;20100;-76
2021/12/12 07:45:38;;;;;;;;;;;;;;;2.10;100.00;102042.72;5111499;28;19908;-76
2021/12/12 07:48:08;;;;;;;;;;;;;;;2.06;100.00;102027.13;5095083;28;20234;-76
2021/12/12 07:50:34;;;;;;;;;;;;;;;2.11;100.00;102041.81;5111256;28;19919;-76
2021/12/12 07:53:00;;;;;;;;;;;;;;;2.16;100.00;102049.50;5111242;28;20006;-76
2021/12/12 07:55:26;;;;;;;;;;;;;;;2.13;100.00;102038.22;5094043;28;20534;-76
2021/12/12 07:57:51;;;;;;;;;;;;;;;2.12;100.00;102034.75;5112143;28;19916;-75
2021/12/12 08:00:20;;;;;;;;;;;;;;;2.20;100.00;102047.53;5113177;28;19918;-76
2021/12/12 08:02:46;;;;;;;;;;;;;;;2.22;100.00;102035.13;5095531;28;20634;-75
2021/12/12 08:05:13;;;;;;;;;;;;;;;2.23;100.00;102036.88;5094064;28;19949;-76
2021/12/12 08:07:40;;;;;;;;;;;;;;;2.25;100.00;102027.94;5110200;28;19980;-76
2021/12/12 08:10:07;;;;;;;;;;;;;;;2.32;100.00;102039.03;5111785;28;20034;-75
2021/12/12 08:12:32;;;;;;;;;;;;;;;2.78;100.00;102092.03;5094015;28;20304;-75
2021/12/12 08:15:00;;;;;;;;;;;;;;;2.51;100.00;102039.81;5110377;28;19962;-74
2021/12/12 08:17:26;;;;;;;;;;;;;;;2.40;100.00;102007.00;5110828;28;19926;-75
2021/12/12 08:19:55;;;;;;;;;;;;;;;2.48;100.00;102008.31;5111749;28;19919;-75
2021/12/12 08:22:20;;;;;;;;;;;;;;;2.42;100.00;101989.34;5111721;28;20497;-75
2021/12/12 08:24:46;;;;;;;;;;;;;;;2.33;100.00;101954.59;5110322;28;19919;-76
2021/12/12 08:27:12;;;;;;;;;;;;;;;2.41;100.00;101970.03;5110650;28;20017;-75
2021/12/12 08:29:37;;;;;;;;;;;;;;;2.38;100.00;101949.09;5110240;28;20002;-76
2021/12/12 08:32:04;;;;;;;;;;;;;;;2.28;100.00;101926.78;5110484;28;19916;-75
2021/12/12 08:34:30;;;;;;;;;;;;;;;2.23;100.00;101945.47;5110097;28;19907;-76
2021/12/12 08:36:55;;;;;;;;;;;;;;;2.27;100.00;101959.34;5110494;28;20004;-76
2021/12/12 08:39:21;;;;;;;;;;;;;;;2.23;100.00;101953.38;5093253;28;19916;-76
2021/12/12 08:41:48;;;;;;;;;;;;;;;2.24;100.00;101970.03;5111149;28;19916;-77
2021/12/12 08:44:14;;;;;;;;;;;;;;;2.38;100.00;101998.31;5110007;28;19927;-76
2021/12/12 08:46:40;;;;;;;;;;;;;;;2.29;100.00;101986.47;5110234;28;19911;-76
2021/12/12 08:49:08;;;;;;;;;;;;;;;2.31;100.00;102010.97;5110307;28;19928;-76
2021/12/12 08:51:35;;;;;;;;;;;;;;;2.33;100.00;102001.19;5110054;28;19962;-75
2021/12/12 08:54:12;;;;;;;;;;;;;;;2.42;100.00;102023.59;5092865;28;19915;-76
2021/12/12 08:56:46;;;;;;;;;;;;;;;2.40;100.00;102031.56;5110003;28;19926;-76
2021/12/12 08:59:17;;;;;;;;;;;;;;;2.35;100.00;102011.66;5110374;28;19922;-76
2021/12/12 09:01:43;;;;;;;;;;;;;;;2.39;100.00;102015.84;5110097;28;20260;-76
2021/12/12 09:04:09;;;;;;;;;;;;;;;2.44;100.00;102029.66;5109633;28;19916;-76
2021/12/12 09:06:39;;;;;;;;;;;;;;;2.43;100.00;102036.69;5110045;28;19912;-76
2021/12/12 09:09:20;;;;;;;;;;;;;;;2.39;100.00;102029.00;5092957;28;20340;-76
2021/12/12 09:11:59;;;;;;;;;;;;;;;2.41;100.00;102043.84;5092944;28;20725;-77
2021/12/12 09:14:32;;;;;;;;;;;;;;;2.49;100.00;102065.38;5109611;28;19912;-76
2021/12/12 09:17:05;;;;;;;;;;;;;;;2.50;100.00;102066.22;5109860;28;19930;-77
2021/12/12 09:19:53;;;;;;;;;;;;;;;2.57;100.00;102066.78;5109698;28;19912;-77
2021/12/12 09:22:40;;;;;;;;;;;;;;;2.56;100.00;102057.16;5109649;28;19972;-77
2021/12/12 09:25:06;;;;;;;;;;;;;;;2.63;100.00;102066.47;5109587;28;19926;-77
2021/12/12 09:27:31;;;;;;;;;;;;;;;2.69;100.00;102067.00;5109552;28;20485;-78
2021/12/12 09:30:04;;;;;;;;;;;;;;;2.69;100.00;102045.91;5109755;28;19954;-78
2021/12/12 09:32:32;;;;;;;;;;;;;;;2.68;100.00;102041.56;5109613;28;19912;-76
2021/12/12 09:35:07;;;;;;;;;;;;;;;2.65;100.00;102027.69;5109513;28;19911;-76
2021/12/12 09:37:43;;;;;;;;;;;;;;;2.72;100.00;102048.38;5110385;28;20253;-77
2021/12/12 09:40:15;;;;;;;;;;;;;;;2.73;100.00;102047.44;5109587;28;19915;-77
2021/12/12 09:42:49;;;;;;;;;;;;;;;2.70;100.00;102049.41;5109284;28;19988;-77
2021/12/12 09:45:21;;;;;;;;;;;;;;;2.69;100.00;102039.75;5110052;28;19912;-76
2021/12/12 09:48:27;;;;;;;;;;;;;;;2.67;100.00;102054.81;5110325;28;19926;-76
2021/12/12 09:51:18;;;;;;;;;;;;;;;2.73;100.00;102079.09;5110435;28;19911;-77
2021/12/12 09:53:52;;;;;;;;;;;;;;;2.79;100.00;102091.13;5109946;28;20006;-76
2021/12/12 09:56:38;;;;;;;;;;;;;;;2.88;100.00;102111.75;5109379;28;19916;-76
2021/12/12 09:59:23;;;;;;;;;;;;;;;2.79;100.00;102093.75;5078114;28;20260;-77
2021/12/12 10:02:04;;;;;;;;;;;;;;;2.92;100.00;102109.78;5092372;28;20374;-76
2021/12/12 10:04:33;;;;;;;;;;;;;;;2.92;100.00;102108.00;5110012;28;19916;-76
2021/12/12 10:07:25;;;;;;;;;;;;;;;2.98;100.00;102103.34;5110262;28;20015;-77
2021/12/12 10:09:59;;;;;;;;;;;;;;;2.88;100.00;102074.81;5078449;28;19951;-77
2021/12/12 10:12:34;;;;;;;;;;;;;;;2.95;100.00;102094.66;5092210;28;20010;-77
2021/12/12 10:14:59;;;;;;;;;;;;;;;3.01;100.00;102100.56;5109858;28;19911;-77
2021/12/12 10:17:36;;;;;;;;;;;;;;;2.93;100.00;102079.84;5109255;28;19945;-76
2021/12/12 10:20:28;;;;;;;;;;;;;;;2.87;100.00;102065.19;5109278;28;19915;-77
2021/12/12 10:23:05;;;;;;;;;;;;;;;3.05;100.00;102099.47;5088258;28;19915;-77
2021/12/12 10:25:46;;;;;;;;;;;;;;;3.04;100.00;102090.66;5109603;28;19946;-77
2021/12/12 10:28:19;;;;;;;;;;;;;;;2.97;100.00;102073.47;5109010;28;19953;-77
2021/12/12 10:30:53;;;;;;;;;;;;;;;2.95;100.00;102072.72;5094120;28;19912;-77
2021/12/12 10:33:27;;;;;;;;;;;;;;;3.02;100.00;102086.41;5113233;28;19911;-77
2021/12/12 10:35:53;;;;;;;;;;;;;;;2.95;100.00;102063.00;5096129;28;19934;-77
2021/12/12 10:38:26;;;;;;;;;;;;;;;2.91;100.00;102056.19;5113191;28;19908;-77
2021/12/12 10:41:04;;;;;;;;;;;;;;;2.98;100.00;102077.81;5113071;28;19911;-77
2021/12/12 10:43:37;;;;;;;;;;;;;;;3.01;100.00;102090.84;5112548;28;19919;-77
2021/12/12 10:46:18;;;;;;;;;;;;;;;3.01;100.00;102085.56;5112625;28;19915;-76
2021/12/12 10:49:02;;;;;;;;;;;;;;;2.96;100.00;102077.91;5112637;28;19920;-76
2021/12/12 10:51:37;;;;;;;;;;;;;;;3.01;100.00;102090.84;5112545;28;19918;-76
2021/12/12 10:54:13;;;;;;;;;;;;;;;3.10;100.00;102113.25;5112988;28;20226;-76
2021/12/12 10:56:47;;;;;;;;;;;;;;;3.17;100.00;102119.94;5112471;28;19911;-77
2021/12/12 10:59:33;;;;;;;;;;;;;;;3.13;100.00;102102.53;5112347;28;19965;-76
2021/12/12 11:02:01;;;;;;;;;;;;;;;3.22;100.00;102109.13;5111747;28;19912;-77
2021/12/12 11:04:36;;;;;;;;;;;;;;;3.12;100.00;102069.19;5094726;28;20302;-76
2021/12/12 11:07:04;;;;;;;;;;;;;;;3.20;100.00;102072.25;5113223;28;20335;-76
2021/12/12 11:09:38;;;;;;;;;;;;;;;3.13;100.00;102055.88;5111982;28;20287;-76
2021/12/12 11:12:21;;;;;;;;;;;;;;;3.08;100.00;102055.28;5095191;28;20005;-76
2021/12/12 11:14:53;;;;;;;;;;;;;;;3.07;100.00;102060.66;5111828;28;19941;-76
2021/12/12 11:17:25;;;;;;;;;;;;;;;3.20;100.00;102093.34;5112133;28;20010;-76
2021/12/12 11:19:50;;;;;;;;;;;;;;;3.27;100.00;102096.53;5111859;28;19923;-75
2021/12/12 11:22:20;;;;;;;;;;;;;;;3.26;100.00;102090.41;5112933;28;20296;-75
2021/12/12 11:24:49;;;;;;;;;;;;;;;3.25;100.00;102075.47;5112388;28;19919;-75
2021/12/12 11:27:16;;;;;;;;;;;;;;;3.24;100.00;102065.88;5111719;28;19919;-76
2021/12/12 11:29:46;;;;;;;;;;;;;;;3.25;100.00;102054.38;5111620;28;19911;-75
2021/12/12 11:32:16;;;;;;;;;;;;;;;3.28;100.00;102062.13;5112491;28;19911;-76
2021/12/12 11:34:44;;;;;;;;;;;;;;;3.30;100.00;102067.31;5112077;28;20006;-76
2021/12/12 11:37:13;;;;;;;;;;;;;;;3.29;100.00;102061.19;5094711;28;19911;-76
2021/12/12 11:39:52;;;;;;;;;;;;;;;3.30;100.00;102068.19;5111431;28;19911;-76
2021/12/12 11:42:21;;;;;;;;;;;;;;;3.22;100.00;102054.53;5093469;28;20345;-75
2021/12/12 11:44:59;;;;;;;;;;;;;;;3.28;100.00;102075.34;5111010;28;19916;-76
2021/12/12 11:47:30;;;;;;;;;;;;;;;3.26;100.00;102082.47;5112167;28;19911;-76
2021/12/12 11:50:00;;;;;;;;;;;;;;;3.28;100.00;102088.53;5111332;28;19937;-76
2021/12/12 11:52:28;;;;;;;;;;;;;;;3.35;100.00;102113.66;5112347;28;19912;-76
2021/12/12 11:55:07;;;;;;;;;;;;;;;3.31;100.00;102096.28;5110825;28;20260;-77
2021/12/12 11:57:38;;;;;;;;;;;;;;;3.41;100.00;102132.75;5094646;28;20279;-76
2021/12/12 12:00:15;;;;;;;;;;;;;;;3.34;100.00;102125.16;5111853;28;19935;-76
2021/12/12 12:02:45;;;;;;;;;;;;;;;3.38;100.00;102129.34;5111108;28;19915;-76
2021/12/12 12:05:10;;;;;;;;;;;;;;;3.36;100.00;102140.91;5111630;28;19946;-76
2021/12/12 12:07:45;;;;;;;;;;;;;;;3.43;100.00;102152.00;5111083;28;20332;-76
2021/12/12 12:10:32;;;;;;;;;;;;;;;3.43;100.00;102152.84;5111505;28;19920;-76
2021/12/12 12:12:57;;;;;;;;;;;;;;;3.44;100.00;102157.22;5111857;28;20233;-76
2021/12/12 12:15:35;;;;;;;;;;;;;;;3.49;100.00;102173.66;5110518;28;19922;-77
2021/12/12 12:18:04;;;;;;;;;;;;;;;3.50;100.00;102172.72;5110910;28;19920;-76
2021/12/12 12:20:48;;;;;;;;;;;;;;;3.52;100.00;102193.78;5110428;28;19962;-76
2021/12/12 12:23:42;;;;;;;;;;;;;;;3.57;100.00;102203.13;5109290;28;19919;-77
2021/12/12 12:28:57;;;;;;;;;;;;;;;3.60;100.00;102210.03;5110127;28;19915;-76
2021/12/12 12:31:36;;;;;;;;;;;;;;;3.66;100.00;102222.09;5109205;28;19918;-76
2021/12/12 12:34:21;;;;;;;;;;;;;;;3.73;100.00;102229.59;5109072;28;19969;-76
2021/12/12 12:37:05;;;;;;;;;;;;;;;3.69;100.00;102208.72;5110112;28;19918;-76
2021/12/12 12:39:30;;;;;;;;;;;;;;;3.64;100.00;102208.94;5108889;28;19966;-77
2021/12/12 12:42:02;;;;;;;;;;;;;;;3.70;100.00;102224.50;5110021;28;19958;-76
2021/12/12 12:44:30;;;;;;;;;;;;;;;3.72;100.00;102230.53;5109719;28;20067;-76
2021/12/12 12:47:14;;;;;;;;;;;;;;;3.72;100.00;102222.63;5092246;28;19919;-77
2021/12/12 12:50:07;;;;;;;;;;;;;;;3.67;100.00;102219.34;5108534;28;19922;-77
2021/12/12 12:52:38;;;;;;;;;;;;;;;3.76;100.00;102240.00;5108807;28;19919;-77
2021/12/12 12:55:22;;;;;;;;;;;;;;;3.79;100.00;102238.97;5109648;28;19980;-78
2021/12/12 12:57:48;;;;;;;;;;;;;;;3.79;100.00;102245.13;5109210;28;19980;-77
2021/12/12 13:00:20;;;;;;;;;;;;;;;3.80;100.00;102245.97;5109647;28;19915;-76
2021/12/12 13:02:52;;;;;;;;;;;;;;;3.79;100.00;102237.22;5109016;28;19922;-77